Time,TemperatureF,DewpointF,PressureIn,WindDirection,WindDirectionDegrees,WindSpeedMPH,WindSpeedGustMPH,Humidity,HourlyPrecipIn,Conditions,Clouds,dailyrainin,SolarRadiationWatts/m^2,UVIndex,SoftwareType,DateUTC
2020-10-22 00:04:59,50.6,46.6,30.27,SW,221,0,0,86,0.00,,,0.00,,,n/a,2020-10-22T04:04:59Z
2020-10-22 00:09:59,50.5,46.4,30.27,SW,221,0,0,85.8,0.00,,,0.00,,,n/a,2020-10-22T04:09:59Z
2020-10-22 00:14:59,50.4,46.1,30.27,SW,221,0,0,85,0.00,,,0.00,,,n/a,2020-10-22T04:14:59Z
2020-10-22 00:19:59,50.2,45.9,30.27,SW,221,0,0,85,0.00,,,0.00,,,n/a,2020-10-22T04:19:59Z
2020-10-22 00:24:59,50.1,45.8,30.27,SW,221,0,0,85,0.00,,,0.00,,,n/a,2020-10-22T04:24:59Z
2020-10-22 00:29:59,49.9,45.6,30.27,SW,221,0,0,85,0.00,,,0.00,,,n/a,2020-10-22T04:29:59Z
2020-10-22 00:34:59,49.8,45.5,30.27,SW,221,0,0,85,0.00,,,0.00,,,n/a,2020-10-22T04:34:59Z
2020-10-22 00:39:59,49.6,45.3,30.27,SW,221,0,0,85,0.00,,,0.00,,,n/a,2020-10-22T04:39:59Z
2020-10-22 00:44:59,49.4,45.1,30.27,SW,221,0,0,85,0.00,,,0.00,,,n/a,2020-10-22T04:44:59Z
2020-10-22 00:49:59,49.2,44.9,30.27,SW,221,0,0,85,0.00,,,0.00,,,n/a,2020-10-22T04:49:59Z
2020-10-22 00:54:59,49.1,44.9,30.28,SW,221,0,0,85.5,0.00,,,0.00,,,n/a,2020-10-22T04:54:59Z
2020-10-22 00:59:59,48.9,44.8,30.28,SW,221,0,0,85.5,0.00,,,0.00,,,n/a,2020-10-22T04:59:59Z
2020-10-22 01:04:59,48.8,44.8,30.28,SW,221,0,0,86,0.00,,,0.00,,,n/a,2020-10-22T05:04:59Z
2020-10-22 01:09:59,48.7,44.7,30.28,SW,221,0,0,86,0.00,,,0.00,,,n/a,2020-10-22T05:09:59Z
2020-10-22 01:14:59,48.7,44.7,30.28,SW,221,0,0,86,0.00,,,0.00,,,n/a,2020-10-22T05:14:59Z
2020-10-22 01:19:59,48.7,44.9,30.27,SW,221,0.6,1,86.7,0.00,,,0.00,,,n/a,2020-10-22T05:19:59Z
2020-10-22 01:24:59,48.7,45,30.27,SW,221,0.5,1,86.8,0.00,,,0.00,,,n/a,2020-10-22T05:24:59Z
2020-10-22 01:29:59,48.7,45,30.26,SW,221,0,1,87,0.00,,,0.00,,,n/a,2020-10-22T05:29:59Z
2020-10-22 01:34:59,48.7,45,30.25,SW,221,0.8,2,87,0.00,,,0.00,,,n/a,2020-10-22T05:34:59Z
2020-10-22 01:39:59,48.6,44.9,30.25,SW,221,0.2,2,87,0.00,,,0.00,,,n/a,2020-10-22T05:39:59Z
2020-10-22 01:44:59,48.5,44.8,30.25,SW,221,0,2,87,0.00,,,0.00,,,n/a,2020-10-22T05:44:59Z
2020-10-22 01:49:59,48.4,44.7,30.25,SW,221,0,1,87,0.00,,,0.00,,,n/a,2020-10-22T05:49:59Z
2020-10-22 01:54:59,48.2,44.5,30.26,SW,221,0,0,87,0.00,,,0.00,,,n/a,2020-10-22T05:54:59Z
2020-10-22 01:59:59,48.1,44.4,30.26,SW,221,0,0,87,0.00,,,0.00,,,n/a,2020-10-22T05:59:59Z
2020-10-22 02:04:59,47.9,44.2,30.26,SW,221,0,0,87,0.00,,,0.00,,,n/a,2020-10-22T06:04:59Z
2020-10-22 02:09:59,47.8,44.1,30.26,SW,221,0,0,87,0.00,,,0.00,,,n/a,2020-10-22T06:09:59Z
2020-10-22 02:14:59,47.7,44,30.26,SW,221,0,0,87,0.00,,,0.00,,,n/a,2020-10-22T06:14:59Z
2020-10-22 02:19:59,47.5,43.8,30.26,SW,221,0,0,87,0.00,,,0.00,,,n/a,2020-10-22T06:19:59Z
2020-10-22 02:24:59,47.4,43.7,30.26,SW,221,0,1,87,0.00,,,0.00,,,n/a,2020-10-22T06:24:59Z
2020-10-22 02:29:59,47.2,43.5,30.26,SW,221,0,1,87,0.00,,,0.00,,,n/a,2020-10-22T06:29:59Z
2020-10-22 02:34:59,47.1,43.4,30.27,SW,221,0.1,1,87,0.00,,,0.00,,,n/a,2020-10-22T06:34:59Z
2020-10-22 02:39:59,47,43.3,30.27,SW,221,0.2,1,87,0.00,,,0.00,,,n/a,2020-10-22T06:39:59Z
2020-10-22 02:44:59,46.9,43.2,30.27,SW,221,0,1,87.1,0.00,,,0.00,,,n/a,2020-10-22T06:44:59Z
2020-10-22 02:49:59,46.9,43.5,30.28,SW,221,0,1,88,0.00,,,0.00,,,n/a,2020-10-22T06:49:59Z
2020-10-22 02:54:59,46.9,43.5,30.27,SW,221,0,0,88,0.00,,,0.00,,,n/a,2020-10-22T06:54:59Z
2020-10-22 02:59:59,46.8,43.4,30.27,SW,221,0.5,2,88,0.00,,,0.00,,,n/a,2020-10-22T06:59:59Z
2020-10-22 03:04:59,46.9,43.8,30.26,SW,221,0.3,2,89,0.00,,,0.00,,,n/a,2020-10-22T07:04:59Z
2020-10-22 03:09:59,46.9,43.8,30.26,SW,221,0,2,89,0.00,,,0.00,,,n/a,2020-10-22T07:09:59Z
2020-10-22 03:14:59,46.9,43.8,30.26,SW,221,0,1,89,0.00,,,0.00,,,n/a,2020-10-22T07:14:59Z
2020-10-22 03:19:59,46.8,43.7,30.26,SW,221,0.2,2,89,0.00,,,0.00,,,n/a,2020-10-22T07:19:59Z
2020-10-22 03:24:59,46.8,43.7,30.26,SW,221,0,2,89,0.00,,,0.00,,,n/a,2020-10-22T07:24:59Z
2020-10-22 03:29:59,46.7,43.6,30.27,SW,221,0,2,89,0.00,,,0.00,,,n/a,2020-10-22T07:29:59Z
2020-10-22 03:34:59,46.7,43.6,30.27,SW,221,0,1,89,0.00,,,0.00,,,n/a,2020-10-22T07:34:59Z
2020-10-22 03:39:59,46.8,43.7,30.27,SW,221,0,1,89,0.00,,,0.00,,,n/a,2020-10-22T07:39:59Z
2020-10-22 03:44:59,46.8,43.7,30.27,SW,221,0,1,89,0.00,,,0.00,,,n/a,2020-10-22T07:44:59Z
2020-10-22 03:49:59,46.9,43.8,30.27,SW,221,0,0,89,0.00,,,0.00,,,n/a,2020-10-22T07:49:59Z
2020-10-22 03:54:59,47,44.1,30.26,SW,221,0.2,1,89.6,0.00,,,0.00,,,n/a,2020-10-22T07:54:59Z
2020-10-22 03:59:59,47.2,44.4,30.26,SW,221,0.1,1,90,0.00,,,0.00,,,n/a,2020-10-22T07:59:59Z
2020-10-22 04:04:59,47.3,44.5,30.25,SW,221,0,1,90,0.00,,,0.00,,,n/a,2020-10-22T08:04:59Z
2020-10-22 04:09:59,47.4,44.6,30.25,SW,221,0,1,90,0.00,,,0.00,,,n/a,2020-10-22T08:09:59Z
2020-10-22 04:14:59,47.4,44.6,30.24,SW,221,0.6,2,90,0.00,,,0.00,,,n/a,2020-10-22T08:14:59Z
2020-10-22 04:19:59,47.4,44.6,30.25,SW,221,0,2,90,0.00,,,0.00,,,n/a,2020-10-22T08:19:59Z
2020-10-22 04:24:59,47.4,44.6,30.25,SW,221,0.2,2,90,0.00,,,0.00,,,n/a,2020-10-22T08:24:59Z
2020-10-22 04:29:59,47.4,44.6,30.25,SW,221,0.7,2,90,0.00,,,0.00,,,n/a,2020-10-22T08:29:59Z
2020-10-22 04:34:59,47.5,44.7,30.25,SW,221,0,2,90,0.00,,,0.00,,,n/a,2020-10-22T08:34:59Z
2020-10-22 04:39:59,47.5,44.7,30.25,SW,221,0,2,90,0.00,,,0.00,,,n/a,2020-10-22T08:39:59Z
2020-10-22 04:44:59,47.5,44.7,30.25,SW,221,0,0,90,0.00,,,0.00,,,n/a,2020-10-22T08:44:59Z
2020-10-22 04:49:59,47.5,44.7,30.25,SW,221,0.1,1,90,0.00,,,0.00,,,n/a,2020-10-22T08:49:59Z
2020-10-22 04:54:59,47.6,44.8,30.24,SW,221,0.3,1,90,0.00,,,0.00,,,n/a,2020-10-22T08:54:59Z
2020-10-22 04:59:59,47.6,44.8,30.24,SW,221,0.3,1,90,0.00,,,0.00,,,n/a,2020-10-22T08:59:59Z
2020-10-22 05:04:59,47.7,44.9,30.24,SW,221,0.6,1,90,0.00,,,0.00,,,n/a,2020-10-22T09:04:59Z
2020-10-22 05:09:59,47.7,45,30.24,SW,221,0,1,90.2,0.00,,,0.00,,,n/a,2020-10-22T09:09:59Z
2020-10-22 05:14:59,47.8,45.2,30.25,SW,221,0,1,90.9,0.00,,,0.00,,,n/a,2020-10-22T09:14:59Z
2020-10-22 05:19:59,47.8,45.3,30.26,SW,221,0,0,91,0.00,,,0.00,,,n/a,2020-10-22T09:19:59Z
2020-10-22 05:24:59,47.8,45.2,30.26,SW,221,0,0,90.5,0.00,,,0.00,,,n/a,2020-10-22T09:24:59Z
2020-10-22 05:29:59,47.8,45.3,30.26,SW,221,0,0,90.8,0.00,,,0.00,,,n/a,2020-10-22T09:29:59Z
2020-10-22 05:34:59,47.9,45.4,30.27,SW,221,0,0,91,0.00,,,0.00,,,n/a,2020-10-22T09:34:59Z
2020-10-22 05:39:59,47.9,45.4,30.26,SW,221,0.4,1,91,0.00,,,0.00,,,n/a,2020-10-22T09:39:59Z
2020-10-22 05:44:59,48,45.5,30.26,SW,221,0.1,1,91,0.00,,,0.00,,,n/a,2020-10-22T09:44:59Z
2020-10-22 05:49:59,48.1,45.6,30.26,SW,221,0.7,1,91,0.00,,,0.00,,,n/a,2020-10-22T09:49:59Z
2020-10-22 05:54:59,48.2,45.7,30.26,SW,221,0.4,1,91,0.00,,,0.00,,,n/a,2020-10-22T09:54:59Z
2020-10-22 05:59:59,48.2,45.7,30.26,SW,221,0.2,1,91,0.00,,,0.00,,,n/a,2020-10-22T09:59:59Z
2020-10-22 06:04:59,48.3,45.8,30.27,SW,221,0.2,1,91,0.00,,,0.00,,,n/a,2020-10-22T10:04:59Z
2020-10-22 06:09:59,48.3,45.8,30.26,SW,221,0.7,2,91,0.00,,,0.00,,,n/a,2020-10-22T10:09:59Z
2020-10-22 06:14:59,48.3,45.8,30.26,SW,221,0.5,2,91,0.00,,,0.00,,,n/a,2020-10-22T10:14:59Z
2020-10-22 06:19:59,48.3,45.8,30.26,SW,221,0.6,2,91,0.00,,,0.00,,,n/a,2020-10-22T10:19:59Z
2020-10-22 06:24:59,48.3,45.8,30.26,SW,221,0.8,2,91,0.00,,,0.00,,,n/a,2020-10-22T10:24:59Z
2020-10-22 06:29:59,48.4,45.9,30.26,SW,221,0.3,2,91,0.00,,,0.00,,,n/a,2020-10-22T10:29:59Z
2020-10-22 06:34:59,48.5,46,30.26,SW,221,0.9,2,91,0.00,,,0.00,,,n/a,2020-10-22T10:34:59Z
2020-10-22 06:39:59,48.5,46,30.26,SW,220,0.9,2,91,0.00,,,0.00,,,n/a,2020-10-22T10:39:59Z
2020-10-22 06:44:59,48.5,46,30.26,SW,220,0.7,2,91,0.00,,,0.00,,,n/a,2020-10-22T10:44:59Z
2020-10-22 06:49:59,48.6,46.1,30.26,SW,220,0.1,2,91,0.00,,,0.00,,,n/a,2020-10-22T10:49:59Z
2020-10-22 06:54:59,48.7,46.2,30.26,SW,220,0,2,91,0.00,,,0.00,,,n/a,2020-10-22T10:54:59Z
2020-10-22 06:59:59,48.8,46.3,30.26,SW,220,0,1,91,0.00,,,0.00,,,n/a,2020-10-22T10:59:59Z
2020-10-22 07:04:59,48.8,46.3,30.27,SW,220,0,0,91,0.00,,,0.00,,,n/a,2020-10-22T11:04:59Z
2020-10-22 07:09:59,48.9,46.4,30.28,SW,220,0,0,91,0.00,,,0.00,,,n/a,2020-10-22T11:09:59Z
2020-10-22 07:14:59,49,46.5,30.29,SW,220,0,0,91,0.00,,,0.00,,,n/a,2020-10-22T11:14:59Z
2020-10-22 07:19:59,49.1,46.6,30.30,SW,220,0,0,91,0.00,,,0.00,,,n/a,2020-10-22T11:19:59Z
2020-10-22 07:24:59,49.1,46.6,30.29,SW,221,0,0,91,0.00,,,0.00,,,n/a,2020-10-22T11:24:59Z
2020-10-22 07:29:59,49.2,46.7,30.30,SW,221,0,0,91,0.00,,,0.00,,,n/a,2020-10-22T11:29:59Z
2020-10-22 07:34:59,49.2,46.7,30.30,SW,221,0,0,91,0.00,,,0.00,,,n/a,2020-10-22T11:34:59Z
2020-10-22 07:39:59,49.2,46.7,30.30,SW,221,0,0,91,0.00,,,0.00,,,n/a,2020-10-22T11:39:59Z
2020-10-22 07:44:59,49.2,46.7,30.29,SW,221,0,0,91,0.00,,,0.00,,,n/a,2020-10-22T11:44:59Z
2020-10-22 07:49:59,49.2,46.7,30.29,SW,221,0,0,91,0.00,,,0.00,,,n/a,2020-10-22T11:49:59Z
2020-10-22 07:54:59,49.2,46.7,30.29,SW,221,0,0,91,0.00,,,0.00,,,n/a,2020-10-22T11:54:59Z
2020-10-22 07:59:59,49.2,46.7,30.29,SW,221,0,0,91,0.00,,,0.00,,,n/a,2020-10-22T11:59:59Z
2020-10-22 08:04:59,49.2,46.7,30.29,SW,221,0,0,91,0.00,,,0.00,,,n/a,2020-10-22T12:04:59Z
2020-10-22 08:09:59,49.1,46.6,30.29,SW,221,0,0,91,0.00,,,0.00,,,n/a,2020-10-22T12:09:59Z
2020-10-22 08:14:59,49.1,46.6,30.28,SW,217,1.9,3,91,0.00,,,0.00,,,n/a,2020-10-22T12:14:59Z
2020-10-22 08:19:59,49.1,46.6,30.26,South,178,2.2,4,91,0.00,,,0.00,,,n/a,2020-10-22T12:19:59Z
2020-10-22 08:24:59,49.1,46.6,30.27,SSE,159,0.3,4,91,0.00,,,0.00,,,n/a,2020-10-22T12:24:59Z
2020-10-22 08:29:59,49,46.5,30.28,SSE,158,0.9,4,91,0.00,,,0.00,,,n/a,2020-10-22T12:29:59Z
2020-10-22 08:34:59,49,46.5,30.28,SSE,158,0.4,2,91,0.00,,,0.00,,,n/a,2020-10-22T12:34:59Z
2020-10-22 08:39:59,49,46.5,30.29,SSE,158,0.5,2,91,0.00,,,0.00,,,n/a,2020-10-22T12:39:59Z
2020-10-22 08:44:59,49,46.5,30.29,SSE,158,1.6,2,91,0.00,,,0.00,,,n/a,2020-10-22T12:44:59Z
2020-10-22 08:49:59,49,46.5,30.29,SSE,158,1.2,2,91,0.00,,,0.00,,,n/a,2020-10-22T12:49:59Z
2020-10-22 08:54:59,49,46.5,30.28,SSE,158,1.6,3,91,0.00,,,0.00,,,n/a,2020-10-22T12:54:59Z
2020-10-22 08:59:59,49.1,46.6,30.27,East,96,2,3,91,0.00,,,0.00,,,n/a,2020-10-22T12:59:59Z
2020-10-22 09:04:59,49.1,46.6,30.29,East,82,0.8,3,91,0.00,,,0.00,,,n/a,2020-10-22T13:04:59Z
2020-10-22 09:09:59,49.2,46.7,30.29,ENE,76,1.5,5,91,0.00,,,0.00,,,n/a,2020-10-22T13:09:59Z
2020-10-22 09:14:59,49.2,46.7,30.29,NE,55,1.4,5,91,0.00,,,0.00,,,n/a,2020-10-22T13:14:59Z
2020-10-22 09:19:59,49.3,46.8,30.29,NE,34,2,5,91,0.00,,,0.00,,,n/a,2020-10-22T13:19:59Z
2020-10-22 09:24:59,49.3,46.8,30.29,NNE,27,2.3,5,91,0.00,,,0.00,,,n/a,2020-10-22T13:24:59Z
2020-10-22 09:29:59,49.4,46.9,30.28,NNE,29,2,5,91,0.00,,,0.00,,,n/a,2020-10-22T13:29:59Z
2020-10-22 09:34:59,49.6,47.1,30.28,North,5,2,5,91,0.00,,,0.00,,,n/a,2020-10-22T13:34:59Z
2020-10-22 09:39:59,49.7,47.2,30.28,NNE,24,2.2,5,91,0.00,,,0.00,,,n/a,2020-10-22T13:39:59Z
2020-10-22 09:44:59,49.8,47.4,30.28,NNE,28,1.9,3,91.5,0.00,,,0.00,,,n/a,2020-10-22T13:44:59Z
2020-10-22 09:49:59,49.9,47.6,30.28,NNE,28,2,3,91.9,0.00,,,0.00,,,n/a,2020-10-22T13:49:59Z
2020-10-22 09:54:59,49.9,47.7,30.28,NE,48,2.2,5,92,0.00,,,0.00,,,n/a,2020-10-22T13:54:59Z
2020-10-22 09:59:59,50.1,47.9,30.28,NE,54,1.9,5,92,0.00,,,0.00,,,n/a,2020-10-22T13:59:59Z
2020-10-22 10:04:59,50.1,47.9,30.28,NE,53,1.6,5,92,0.00,,,0.00,,,n/a,2020-10-22T14:04:59Z
2020-10-22 10:09:59,50.1,47.8,30.28,NE,53,1.9,4,91.8,0.00,,,0.00,,,n/a,2020-10-22T14:09:59Z
2020-10-22 10:14:59,50.1,47.7,30.28,NE,54,2,4,91.2,0.00,,,0.00,,,n/a,2020-10-22T14:14:59Z
2020-10-22 10:19:59,50.2,47.8,30.27,NE,55,1.5,4,91.5,0.00,,,0.00,,,n/a,2020-10-22T14:19:59Z
2020-10-22 10:24:59,50.2,47.7,30.28,NE,55,1.4,4,91,0.00,,,0.00,,,n/a,2020-10-22T14:24:59Z
2020-10-22 10:29:59,50.2,47.7,30.28,NE,55,1,3,91,0.00,,,0.00,,,n/a,2020-10-22T14:29:59Z
2020-10-22 10:34:59,50.3,47.8,30.28,NE,47,1.9,4,91,0.00,,,0.00,,,n/a,2020-10-22T14:34:59Z
2020-10-22 10:39:59,50.3,47.8,30.28,NNE,28,2.4,4,91,0.00,,,0.00,,,n/a,2020-10-22T14:39:59Z
2020-10-22 10:44:59,50.3,47.8,30.28,NNE,28,2.5,4,91,0.00,,,0.00,,,n/a,2020-10-22T14:44:59Z
2020-10-22 10:49:59,50.4,47.9,30.29,NNE,27,1.7,4,91,0.00,,,0.00,,,n/a,2020-10-22T14:49:59Z
2020-10-22 10:54:59,50.4,47.9,30.29,NNE,27,1,4,91,0.00,,,0.00,,,n/a,2020-10-22T14:54:59Z
2020-10-22 10:59:59,50.4,47.9,30.29,North,4,2.1,6,91,0.00,,,0.00,,,n/a,2020-10-22T14:59:59Z
2020-10-22 11:04:59,50.3,47.8,30.29,NNW,347,1.9,6,91,0.00,,,0.00,,,n/a,2020-10-22T15:04:59Z
2020-10-22 11:09:59,50.3,47.8,30.29,NNW,347,1.6,6,91,0.00,,,0.00,,,n/a,2020-10-22T15:09:59Z
2020-10-22 11:14:59,50.3,47.8,30.30,North,351,1.7,4,91,0.00,,,0.00,,,n/a,2020-10-22T15:14:59Z
2020-10-22 11:19:59,50.2,47.7,30.30,North,360,1.6,4,91,0.00,,,0.00,,,n/a,2020-10-22T15:19:59Z
2020-10-22 11:24:59,50.2,47.7,30.30,North,354,1.4,4,91,0.00,,,0.00,,,n/a,2020-10-22T15:24:59Z
2020-10-22 11:29:59,50.2,47.7,30.31,NNW,347,2.3,6,91,0.00,,,0.00,,,n/a,2020-10-22T15:29:59Z
2020-10-22 11:34:59,50.3,47.8,30.31,North,355,1.8,6,91,0.00,,,0.00,,,n/a,2020-10-22T15:34:59Z
2020-10-22 11:39:59,50.3,47.8,30.29,NNE,14,2,6,91,0.00,,,0.00,,,n/a,2020-10-22T15:39:59Z
2020-10-22 11:44:59,50.3,48.1,30.29,NNE,16,2.2,5,91.8,0.00,,,0.00,,,n/a,2020-10-22T15:44:59Z
2020-10-22 11:49:59,50.4,48.2,30.29,NNE,18,1.9,5,92,0.00,,,0.00,,,n/a,2020-10-22T15:49:59Z
2020-10-22 11:54:59,50.4,48.2,30.29,NNE,26,2.4,5,92,0.00,,,0.00,,,n/a,2020-10-22T15:54:59Z
2020-10-22 11:59:59,50.5,48.3,30.29,NE,34,1.9,5,92,0.00,,,0.00,,,n/a,2020-10-22T15:59:59Z
2020-10-22 12:04:59,50.6,48.4,30.29,NE,44,2,4,92,0.00,,,0.00,,,n/a,2020-10-22T16:04:59Z
2020-10-22 12:09:59,50.7,48.5,30.29,NE,45,2,4,92,0.00,,,0.00,,,n/a,2020-10-22T16:09:59Z
2020-10-22 12:14:55,50.8,48.6,30.28,NE,45,1.9,3,92,0.00,,,0.00,,,n/a,2020-10-22T16:14:55Z
2020-10-22 12:19:55,50.9,48.7,30.28,NE,45,2.6,4,92,0.00,,,0.00,,,n/a,2020-10-22T16:19:55Z
2020-10-22 12:24:55,51.1,48.9,30.27,NE,47,2.3,4,92,0.00,,,0.00,,,n/a,2020-10-22T16:24:55Z
2020-10-22 12:29:55,51.2,49,30.27,NE,49,2.5,5,92,0.00,,,0.00,,,n/a,2020-10-22T16:29:55Z
2020-10-22 12:34:55,51.3,49.1,30.27,NE,54,2.4,5,92,0.00,,,0.00,,,n/a,2020-10-22T16:34:55Z
2020-10-22 12:39:55,51.4,49.2,30.26,ENE,57,2.5,5,92,0.00,,,0.00,,,n/a,2020-10-22T16:39:55Z
2020-10-22 12:44:55,51.5,49.3,30.26,ENE,72,3,5,92,0.00,,,0.00,,,n/a,2020-10-22T16:44:55Z
2020-10-22 12:49:55,51.5,49.3,30.26,ENE,74,2.6,7,92,0.00,,,0.00,,,n/a,2020-10-22T16:49:55Z
2020-10-22 12:54:55,51.6,49.4,30.26,ENE,68,2.8,7,92,0.00,,,0.00,,,n/a,2020-10-22T16:54:55Z
2020-10-22 12:59:55,51.7,49.5,30.26,ENE,62,2.6,7,92,0.00,,,0.00,,,n/a,2020-10-22T16:59:55Z
2020-10-22 13:04:55,51.7,49.5,30.25,NE,36,2.8,4,92,0.00,,,0.00,,,n/a,2020-10-22T17:04:55Z
2020-10-22 13:09:55,51.8,49.5,30.25,NE,42,2.1,4,92,0.00,,,0.00,,,n/a,2020-10-22T17:09:55Z
2020-10-22 13:14:55,51.9,49.6,30.25,NE,56,2.7,5,92,0.00,,,0.00,,,n/a,2020-10-22T17:14:55Z
2020-10-22 13:19:55,51.9,49.6,30.25,ENE,61,2.1,5,92,0.00,,,0.00,,,n/a,2020-10-22T17:19:55Z
2020-10-22 13:24:55,52,49.7,30.25,ENE,63,2.9,5,92,0.00,,,0.00,,,n/a,2020-10-22T17:24:55Z
2020-10-22 13:29:55,52,49.7,30.24,ENE,69,3.3,5,92,0.00,,,0.00,,,n/a,2020-10-22T17:29:55Z
2020-10-22 13:34:55,52.1,49.8,30.24,ENE,71,3.2,5,92,0.00,,,0.00,,,n/a,2020-10-22T17:34:55Z
2020-10-22 13:39:55,52.1,49.8,30.23,ENE,70,3.1,7,92,0.00,,,0.00,,,n/a,2020-10-22T17:39:55Z
2020-10-22 13:44:55,52.1,49.8,30.23,ENE,70,2.8,7,92,0.00,,,0.00,,,n/a,2020-10-22T17:44:55Z
2020-10-22 13:49:55,52.1,49.8,30.22,ENE,75,3.4,7,92,0.00,,,0.00,,,n/a,2020-10-22T17:49:55Z
2020-10-22 13:54:55,52.2,49.9,30.22,ENE,67,3,7,92,0.00,,,0.00,,,n/a,2020-10-22T17:54:55Z
2020-10-22 13:59:55,52.3,50,30.22,ENE,72,3.8,9,92,0.00,,,0.00,,,n/a,2020-10-22T17:59:55Z
2020-10-22 14:04:55,52.3,50,30.22,ENE,66,2.8,9,92,0.00,,,0.00,,,n/a,2020-10-22T18:04:55Z
2020-10-22 14:09:55,52.4,50.1,30.23,ENE,67,1.5,9,92,0.00,,,0.00,,,n/a,2020-10-22T18:09:55Z
2020-10-22 14:14:55,52.5,50.2,30.23,ENE,67,1.8,4,92,0.00,,,0.00,,,n/a,2020-10-22T18:14:55Z
2020-10-22 14:19:55,52.5,50.2,30.22,ENE,67,1.9,4,92,0.00,,,0.00,,,n/a,2020-10-22T18:19:55Z
2020-10-22 14:24:55,52.6,50.3,30.22,ENE,67,2.8,5,92,0.00,,,0.00,,,n/a,2020-10-22T18:24:55Z